Time,TemperatureF,DewpointF,PressureIn,WindDirection,WindDirectionDegrees,WindSpeedMPH,WindSpeedGustMPH,Humidity,HourlyPrecipIn,Conditions,Clouds,dailyrainin,SoftwareType,DateUTC
2013-05-10 00:34:00,56.7,46.4,30.41,SSW,203,0.0,0.0,68,0.00,,,0.00,WUHU21623XXSP,2013-05-10 04:34:00,
2013-05-10 01:34:00,55.9,47.1,30.43,SE,135,0.0,0.0,72,0.00,,,0.00,WUHU21623XXSP,2013-05-10 05:34:00,
2013-05-10 02:34:00,54.9,47.6,30.40,SW,225,0.0,0.0,76,0.00,,,0.00,WUHU21623XXSP,2013-05-10 06:34:00,
2013-05-10 03:34:00,52.3,46.4,30.38,WSW,248,0.0,0.0,80,0.00,,,0.00,WUHU21623XXSP,2013-05-10 07:34:00,
2013-05-10 04:34:00,48.7,44.1,30.38,SW,225,0.0,0.0,84,0.00,,,0.00,WUHU21623XXSP,2013-05-10 08:34:00,
2013-05-10 05:34:00,45.5,41.5,30.37,West,270,0.0,0.0,86,0.00,,,0.00,WUHU21623XXSP,2013-05-10 09:34:00,
2013-05-10 06:34:00,43.9,40.5,30.37,West,270,0.0,0.0,88,0.00,,,0.00,WUHU21623XXSP,2013-05-10 10:34:00,
2013-05-10 07:34:00,43.2,40.1,30.37,WSW,248,0.0,0.0,89,0.00,,,0.00,WUHU21623XXSP,2013-05-10 11:34:00,
2013-05-10 08:34:00,42.4,39.3,30.37,WSW,248,0.0,0.0,89,0.00,,,0.00,WUHU21623XXSP,2013-05-10 12:34:00,
2013-05-10 09:34:00,41.5,38.7,30.37,SW,225,1.8,1.8,90,0.00,,,0.00,WUHU21623XXSP,2013-05-10 13:34:00,
2013-05-10 09:43:00,41.4,38.4,30.38,WSW,247,2.7,2.7,89,0.00,,,0.00,WUHU21623XXSP,2013-05-10 13:43:00,
2013-05-10 09:48:00,41.4,38.4,30.38,East,90,0.0,2.7,89,0.00,,,0.00,WUHU21623XXSP,2013-05-10 13:48:00,
2013-05-10 09:53:00,41.2,38.2,30.38,WSW,247,0.0,2.7,89,0.00,,,0.00,WUHU21623XXSP,2013-05-10 13:53:00,
2013-05-10 09:58:00,41.2,38.5,30.38,SW,225,0.0,0.0,90,0.00,,,0.00,WUHU21623XXSP,2013-05-10 13:58:00,
2013-05-10 10:03:00,41.2,38.2,30.38,WSW,247,1.3,1.3,89,0.00,,,0.00,WUHU21623XXSP,2013-05-10 14:03:00,
2013-05-10 10:08:00,40.8,38.1,30.38,ENE,67,0.0,3.4,90,0.00,,,0.00,WUHU21623XXSP,2013-05-10 14:08:00,
2013-05-10 10:13:00,40.8,38.1,30.37,WSW,247,2.5,3.4,90,0.00,,,0.00,WUHU21623XXSP,2013-05-10 14:13:00,
2013-05-10 10:18:00,40.8,38.1,30.38,WSW,247,2.7,2.7,90,0.00,,,0.00,WUHU21623XXSP,2013-05-10 14:18:00,
2013-05-10 10:23:00,40.8,38.1,30.38,WSW,247,0.0,2.7,90,0.00,,,0.00,WUHU21623XXSP,2013-05-10 14:23:00,
2013-05-10 10:28:00,40.8,38.1,30.38,South,180,0.0,0.0,90,0.00,,,0.00,WUHU21623XXSP,2013-05-10 14:28:00,
2013-05-10 10:33:00,40.8,38.1,30.38,WSW,247,0.0,1.6,90,0.00,,,0.00,WUHU21623XXSP,2013-05-10 14:33:00,
2013-05-10 10:39:00,40.8,38.1,30.38,WSW,247,2.0,2.2,90,0.00,,,0.00,WUHU21623XXSP,2013-05-10 14:39:00,
2013-05-10 10:44:00,40.8,38.1,30.37,WSW,247,2.0,2.2,90,0.00,,,0.00,WUHU21623XXSP,2013-05-10 14:44:00,
2013-05-10 10:48:00,40.8,38.1,30.36,WSW,247,0.0,2.0,90,0.00,,,0.00,WUHU21623XXSP,2013-05-10 14:48:00,
2013-05-10 10:53:00,40.8,38.1,30.38,WSW,247,1.6,1.6,90,0.00,,,0.00,WUHU21623XXSP,2013-05-10 14:53:00,
2013-05-10 10:58:00,40.8,38.1,30.37,WSW,247,0.0,2.9,90,0.00,,,0.00,WUHU21623XXSP,2013-05-10 14:58:00,
2013-05-10 11:04:00,40.8,38.1,30.37,WSW,247,1.6,4.5,90,0.00,,,0.00,WUHU21623XXSP,2013-05-10 15:04:00,
2013-05-10 11:09:00,40.8,38.1,30.38,West,270,0.0,4.5,90,0.00,,,0.00,WUHU21623XXSP,2013-05-10 15:09:00,
2013-05-10 11:14:00,40.8,38.1,30.38,WSW,247,0.0,0.0,90,0.00,,,0.00,WUHU21623XXSP,2013-05-10 15:14:00,
2013-05-10 11:19:00,40.8,38.1,30.38,SW,225,0.0,0.0,90,0.00,,,0.00,WUHU21623XXSP,2013-05-10 15:19:00,
2013-05-10 11:24:00,40.8,38.1,30.38,SSW,202,0.0,3.4,90,0.00,,,0.00,WUHU21623XXSP,2013-05-10 15:24:00,
2013-05-10 11:29:00,40.8,38.1,30.38,WSW,247,1.1,3.4,90,0.00,,,0.00,WUHU21623XXSP,2013-05-10 15:29:00,
2013-05-10 11:34:00,40.8,38.1,30.38,WSW,247,0.0,1.1,90,0.00,,,0.00,WUHU21623XXSP,2013-05-10 15:34:00,
2013-05-10 11:39:00,40.8,38.1,30.38,WSW,247,0.0,0.0,90,0.00,,,0.00,WUHU21623XXSP,2013-05-10 15:39:00,
2013-05-10 11:44:00,40.8,38.1,30.38,WSW,247,0.0,0.0,90,0.00,,,0.00,WUHU21623XXSP,2013-05-10 15:44:00,
2013-05-10 11:49:00,41.0,38.3,30.38,WSW,247,0.0,0.0,90,0.00,,,0.00,WUHU21623XXSP,2013-05-10 15:49:00,
2013-05-10 11:54:00,41.2,38.5,30.38,WSW,247,0.0,0.0,90,0.00,,,0.00,WUHU21623XXSP,2013-05-10 15:54:00,
2013-05-10 11:59:00,41.2,38.3,30.38,SW,225,0.0,0.0,90,0.00,,,0.00,WUHU21623XXSP,2013-05-10 15:59:00,
2013-05-10 12:04:00,41.2,38.5,30.38,WSW,247,0.0,0.0,90,0.00,,,0.00,WUHU21623XXSP,2013-05-10 16:04:00,
2013-05-10 12:09:00,41.4,38.7,30.38,SW,225,0.0,0.0,90,0.00,,,0.00,WUHU21623XXSP,2013-05-10 16:09:00,
2013-05-10 12:14:00,41.4,38.7,30.38,WSW,247,0.0,0.0,90,0.00,,,0.00,WUHU21623XXSP,2013-05-10 16:14:00,
2013-05-10 12:19:00,41.5,38.8,30.38,South,180,0.0,1.3,90,0.00,,,0.00,WUHU21623XXSP,2013-05-10 16:19:00,
2013-05-10 12:24:00,41.7,39.0,30.38,WSW,247,0.0,1.3,90,0.00,,,0.00,WUHU21623XXSP,2013-05-10 16:24:00,
2013-05-10 12:29:00,41.7,39.0,30.38,WSW,247,0.0,0.0,90,0.00,,,0.00,WUHU21623XXSP,2013-05-10 16:29:00,
2013-05-10 12:34:00,41.7,39.0,30.38,West,270,1.8,1.8,90,0.00,,,0.00,WUHU21623XXSP,2013-05-10 16:34:00,
2013-05-10 12:39:00,41.5,38.8,30.38,NNE,22,0.0,1.8,90,0.00,,,0.00,WUHU21623XXSP,2013-05-10 16:39:00,
2013-05-10 12:44:00,41.7,39.0,30.38,SW,225,0.0,0.0,90,0.00,,,0.00,WUHU21623XXSP,2013-05-10 16:44:00,
2013-05-10 12:49:00,41.7,39.0,30.38,WSW,247,3.4,3.4,90,0.00,,,0.00,WUHU21623XXSP,2013-05-10 16:49:00,
2013-05-10 12:54:00,41.7,39.0,30.38,WSW,247,1.6,3.4,90,0.00,,,0.00,WUHU21623XXSP,2013-05-10 16:54:00,
2013-05-10 12:59:00,41.5,39.0,30.38,WSW,247,0.0,1.6,90,0.00,,,0.00,WUHU21623XXSP,2013-05-10 16:59:00,
2013-05-10 13:04:00,41.7,39.0,30.38,WSW,247,0.0,0.0,90,0.00,,,0.00,WUHU21623XXSP,2013-05-10 17:04:00,
2013-05-10 13:09:00,41.7,39.0,30.38,SSW,202,0.0,0.0,90,0.00,,,0.00,WUHU21623XXSP,2013-05-10 17:09:00,
2013-05-10 13:14:00,41.7,39.0,30.39,WSW,247,0.0,1.6,90,0.00,,,0.00,WUHU21623XXSP,2013-05-10 17:14:00,
2013-05-10 13:19:00,41.5,39.0,30.39,SW,225,0.0,1.6,90,0.00,,,0.00,WUHU21623XXSP,2013-05-10 17:19:00,
2013-05-10 13:24:00,41.5,38.8,30.38,WSW,247,1.3,1.3,90,0.00,,,0.00,WUHU21623XXSP,2013-05-10 17:24:00,
2013-05-10 13:29:00,41.5,38.8,30.38,WSW,247,0.0,1.3,90,0.00,,,0.00,WUHU21623XXSP,2013-05-10 17:29:00,
2013-05-10 13:34:00,41.5,38.8,30.38,WSW,247,0.0,0.0,90,0.00,,,0.00,WUHU21623XXSP,2013-05-10 17:34:00,
2013-05-10 13:39:00,41.5,38.8,30.39,WSW,247,0.0,0.0,90,0.00,,,0.00,WUHU21623XXSP,2013-05-10 17:39:00,
2013-05-10 13:44:00,41.5,38.8,30.40,WSW,247,0.0,0.0,90,0.00,,,0.00,WUHU21623XXSP,2013-05-10 17:44:00,
2013-05-10 13:49:00,41.4,38.7,30.39,WSW,247,0.0,0.0,90,0.00,,,0.00,WUHU21623XXSP,2013-05-10 17:49:00,
2013-05-10 13:54:00,41.5,38.8,30.39,SW,225,0.0,0.0,90,0.00,,,0.00,WUHU21623XXSP,2013-05-10 17:54:00,
2013-05-10 13:59:00,41.5,38.8,30.39,WSW,247,0.0,0.0,90,0.00,,,0.00,WUHU21623XXSP,2013-05-10 17:59:00,
2013-05-10 14:04:00,41.5,38.8,30.38,SW,225,0.0,0.0,90,0.00,,,0.00,WUHU21623XXSP,2013-05-10 18:04:00,
2013-05-10 14:09:00,42.1,39.4,30.38,WSW,247,0.0,0.0,90,0.00,,,0.00,WUHU21623XXSP,2013-05-10 18:09:00,
2013-05-10 14:14:00,42.1,39.4,30.38,WSW,247,1.6,1.6,90,0.00,,,0.00,WUHU21623XXSP,2013-05-10 18:14:00,
2013-05-10 14:19:00,42.1,39.4,30.38,WSW,247,0.0,1.6,90,0.00,,,0.00,WUHU21623XXSP,2013-05-10 18:19:00,
2013-05-10 14:25:00,42.1,39.4,30.38,WSW,247,0.0,2.2,90,0.00,,,0.00,WUHU21623XXSP,2013-05-10 18:25:00,
2013-05-10 14:30:00,42.1,39.4,30.38,WSW,247,1.3,2.2,90,0.00,,,0.00,WUHU21623XXSP,2013-05-10 18:30:00,
2013-05-10 14:35:00,42.1,39.4,30.39,WSW,247,0.0,2.2,90,0.00,,,0.00,WUHU21623XXSP,2013-05-10 18:35:00,
2013-05-10 14:40:00,42.1,39.4,30.39,WSW,247,3.8,3.8,90,0.00,,,0.00,WUHU21623XXSP,2013-05-10 18:40:00,
2013-05-10 14:45:00,42.1,39.4,30.40,WSW,247,0.0,3.8,90,0.00,,,0.00,WUHU21623XXSP,2013-05-10 18:45:00,
2013-05-10 14:50:00,41.9,39.2,30.40,SSE,157,0.0,3.8,90,0.00,,,0.00,WUHU21623XXSP,2013-05-10 18:50:00,
2013-05-10 14:55:00,42.1,39.4,30.40,WSW,247,0.0,0.0,90,0.00,,,0.00,WUHU21623XXSP,2013-05-10 18:55:00,
2013-05-10 15:00:00,42.1,39.1,30.39,NE,45,0.0,1.8,89,0.00,,,0.00,WUHU21623XXSP,2013-05-10 19:00:00,
2013-05-10 15:05:00,42.4,39.4,30.39,WSW,247,1.8,3.4,89,0.00,,,0.00,WUHU21623XXSP,2013-05-10 19:05:00,
2013-05-10 15:10:00,42.6,39.6,30.39,ESE,112,0.0,3.4,89,0.00,,,0.00,WUHU21623XXSP,2013-05-10 19:10:00,
2013-05-10 15:15:00,42.6,39.6,30.39,WSW,247,4.0,4.0,89,0.00,,,0.00,WUHU21623XXSP,2013-05-10 19:15:00,
2013-05-10 15:20:00,43.0,40.0,30.39,WSW,247,1.8,4.0,89,0.00,,,0.00,WUHU21623XXSP,2013-05-10 19:20:00,
2013-05-10 15:25:00,43.0,39.8,30.40,SE,135,0.0,1.8,89,0.00,,,0.00,WUHU21623XXSP,2013-05-10 19:25:00,
2013-05-10 15:30:00,42.8,39.8,30.40,SW,225,0.0,1.3,89,0.00,,,0.00,WUHU21623XXSP,2013-05-10 19:30:00,
2013-05-10 15:35:00,42.6,39.6,30.40,South,180,0.0,1.3,89,0.00,,,0.00,WUHU21623XXSP,2013-05-10 19:35:00,
2013-05-10 15:40:00,42.6,39.6,30.40,SW,225,0.0,1.3,89,0.00,,,0.00,WUHU21623XXSP,2013-05-10 19:40:00,
2013-05-10 15:45:00,42.6,39.6,30.40,WSW,247,3.6,3.6,89,0.00,,,0.00,WUHU21623XXSP,2013-05-10 19:45:00,
2013-05-10 15:50:00,42.6,39.6,30.40,South,180,0.0,3.6,89,0.00,,,0.00,WUHU21623XXSP,2013-05-10 19:50:00,
2013-05-10 15:55:00,42.6,39.6,30.40,WSW,247,2.5,2.5,89,0.00,,,0.00,WUHU21623XXSP,2013-05-10 19:55:00,
2013-05-10 16:00:00,42.6,39.6,30.40,West,270,0.0,2.5,89,0.00,,,0.00,WUHU21623XXSP,2013-05-10 20:00:00,
2013-05-10 16:05:00,42.6,39.6,30.41,WSW,247,0.0,0.0,89,0.00,,,0.00,WUHU21623XXSP,2013-05-10 20:05:00,
2013-05-10 16:10:00,42.4,39.4,30.41,SE,135,0.0,0.0,89,0.00,,,0.00,WUHU21623XXSP,2013-05-10 20:10:00,
2013-05-10 16:15:00,42.4,39.4,30.41,WSW,247,0.0,0.0,89,0.00,,,0.00,WUHU21623XXSP,2013-05-10 20:15:00,
2013-05-10 16:20:00,42.4,39.4,30.41,WSW,247,0.0,0.0,89,0.00,,,0.00,WUHU21623XXSP,2013-05-10 20:20:00,
2013-05-10 16:25:00,42.4,39.4,30.40,WSW,247,0.0,0.0,89,0.00,,,0.00,WUHU21623XXSP,2013-05-10 20:25:00,
2013-05-10 16:30:00,42.4,39.4,30.40,WSW,247,0.0,0.0,89,0.00,,,0.00,WUHU21623XXSP,2013-05-10 20:30:00,
2013-05-10 16:35:00,42.4,39.4,30.40,WSW,247,0.0,0.0,89,0.00,,,0.00,WUHU21623XXSP,2013-05-10 20:35:00,
2013-05-10 16:40:00,42.6,39.6,30.40,SW,225,0.0,0.0,89,0.00,,,0.00,WUHU21623XXSP,2013-05-10 20:40:00,
2013-05-10 16:45:00,42.6,39.6,30.40,West,270,0.0,0.0,89,0.00,,,0.00,WUHU21623XXSP,2013-05-10 20:45:00,
2013-05-10 16:50:00,42.8,39.8,30.40,South,180,0.0,0.0,89,0.00,,,0.00,WUHU21623XXSP,2013-05-10 20:50:00,
2013-05-10 16:55:00,43.0,40.0,30.40,WSW,247,0.0,0.0,89,0.00,,,0.00,WUHU21623XXSP,2013-05-10 20:55:00,
2013-05-10 17:00:00,43.0,40.0,30.40,WSW,247,0.0,0.0,89,0.00,,,0.00,WUHU21623XXSP,2013-05-10 21:00:00,
2013-05-10 17:05:00,42.6,39.6,30.40,WSW,247,0.0,0.0,89,0.00,,,0.00,WUHU21623XXSP,2013-05-10 21:05:00,
2013-05-10 17:10:00,42.8,39.8,30.40,WSW,247,1.8,1.8,89,0.00,,,0.00,WUHU21623XXSP,2013-05-10 21:10:00,
2013-05-10 17:15:00,42.8,39.8,30.40,WSW,247,0.0,1.8,89,0.00,,,0.00,WUHU21623XXSP,2013-05-10 21:15:00,
2013-05-10 17:20:00,42.8,39.8,30.40,SSW,202,0.0,0.0,89,0.00,,,0.00,WUHU21623XXSP,2013-05-10 21:20:00,
2013-05-10 17:25:00,42.8,39.8,30.40,SW,225,0.0,0.0,89,0.00,,,0.00,WUHU21623XXSP,2013-05-10 21:25:00,
2013-05-10 17:30:00,42.6,39.6,30.39,WSW,247,0.0,0.0,89,0.00,,,0.00,WUHU21623XXSP,2013-05-10 21:30:00,
2013-05-10 17:35:00,42.6,39.6,30.39,WSW,247,0.0,0.0,89,0.00,,,0.00,WUHU21623XXSP,2013-05-10 21:35:00,
2013-05-10 17:40:00,42.6,39.6,30.39,SW,225,0.0,0.0,89,0.00,,,0.00,WUHU21623XXSP,2013-05-10 21:40:00,
2013-05-10 17:45:00,42.6,39.6,30.39,WSW,247,0.0,0.0,89,0.00,,,0.00,WUHU21623XXSP,2013-05-10 21:45:00,
2013-05-10 17:50:00,42.6,39.6,30.39,WSW,247,0.0,0.9,89,0.00,,,0.00,WUHU21623XXSP,2013-05-10 21:50:00,
2013-05-10 17:55:00,42.6,39.6,30.39,WSW,247,0.0,0.9,89,0.00,,,0.00,WUHU21623XXSP,2013-05-10 21:55:00,
2013-05-10 17:58:00,42.6,39.6,30.39,WSW,247,0.0,0.9,89,0.00,,,0.00,WUHU21623XXSP,2013-05-10 21:58:00,
2013-05-10 17:59:00,42.6,39.6,30.39,WSW,247,0.0,0.0,89,0.00,,,0.00,WUHU21623XXSP,2013-05-10 21:59:00,
2013-05-10 18:04:00,42.8,39.8,30.39,WSW,247,0.0,0.0,89,0.00,,,0.00,WUHU21623XXSP,2013-05-10 22:04:00,
2013-05-10 18:09:00,42.6,39.6,30.39,ESE,112,0.0,0.0,89,0.00,,,0.00,WUHU21623XXSP,2013-05-10 22:09:00,
2013-05-10 18:14:00,42.6,39.6,30.39,WSW,247,0.0,0.0,89,0.00,,,0.00,WUHU21623XXSP,2013-05-10 22:14:00,
2013-05-10 18:19:00,42.6,39.6,30.39,SSW,202,0.0,0.0,89,0.00,,,0.00,WUHU21623XXSP,2013-05-10 22:19:00,
2013-05-10 18:24:00,43.0,40.0,30.39,WSW,247,0.0,0.0,89,0.00,,,0.00,WUHU21623XXSP,2013-05-10 22:24:00,
2013-05-10 18:29:00,42.8,39.6,30.39,WSW,247,0.0,0.0,89,0.00,,,0.00,WUHU21623XXSP,2013-05-10 22:29:00,
2013-05-10 18:34:00,42.6,39.6,30.39,West,270,0.0,0.0,89,0.00,,,0.00,WUHU21623XXSP,2013-05-10 22:34:00,
2013-05-10 18:39:00,42.6,39.6,30.38,WSW,247,0.0,0.0,89,0.00,,,0.00,WUHU21623XXSP,2013-05-10 22:39:00,
2013-05-10 18:44:00,42.6,39.6,30.39,West,270,0.0,0.0,89,0.00,,,0.00,WUHU21623XXSP,2013-05-10 22:44:00,
2013-05-10 18:49:00,42.6,39.6,30.38,SW,225,0.0,0.0,89,0.00,,,0.00,WUHU21623XXSP,2013-05-10 22:49:00,
2013-05-10 18:54:00,42.6,39.6,30.39,South,180,0.0,0.0,89,0.00,,,0.00,WUHU21623XXSP,2013-05-10 22:54:00,
2013-05-10 18:59:00,42.6,39.6,30.38,West,270,0.0,0.0,89,0.00,,,0.00,WUHU21623XXSP,2013-05-10 22:59:00,
2013-05-10 19:04:00,42.4,39.4,30.39,West,270,0.0,0.0,89,0.00,,,0.00,WUHU21623XXSP,2013-05-10 23:04:00,
2013-05-10 19:09:00,42.6,39.6,30.39,WSW,247,0.0,0.0,89,0.00,,,0.00,WUHU21623XXSP,2013-05-10 23:09:00,
2013-05-10 19:14:00,42.4,39.4,30.38,WSW,247,0.0,0.0,89,0.00,,,0.00,WUHU21623XXSP,2013-05-10 23:14:00,
2013-05-10 19:19:00,42.4,39.4,30.38,WSW,247,0.0,0.0,89,0.00,,,0.00,WUHU21623XXSP,2013-05-10 23:19:00,
2013-05-10 19:24:00,42.4,39.4,30.39,SSE,157,0.0,0.0,89,0.00,,,0.00,WUHU21623XXSP,2013-05-10 23:24:00,
2013-05-10 19:29:00,42.6,39.6,30.38,WNW,292,0.0,0.0,89,0.00,,,0.00,WUHU21623XXSP,2013-05-10 23:29:00,
2013-05-10 19:34:00,42.4,39.4,30.39,WSW,247,0.0,0.0,89,0.00,,,0.00,WUHU21623XXSP,2013-05-10 23:34:00,
2013-05-10 19:39:00,42.4,39.4,30.39,WSW,247,0.9,0.9,89,0.00,,,0.00,WUHU21623XXSP,2013-05-10 23:39:00,
2013-05-10 19:44:00,42.4,39.4,30.39,SSW,202,0.0,0.9,89,0.00,,,0.00,WUHU21623XXSP,2013-05-10 23:44:00,
2013-05-10 19:49:00,42.4,39.4,30.39,WSW,247,0.0,0.0,89,0.00,,,0.00,WUHU21623XXSP,2013-05-10 23:49:00,
2013-05-10 19:54:00,42.4,39.4,30.39,SW,225,0.0,0.0,89,0.00,,,0.00,WUHU21623XXSP,2013-05-10 23:54:00,
2013-05-10 20:00:00,42.4,39.4,30.39,West,270,0.0,0.0,89,0.00,,,0.00,WUHU21623XXSP,2013-05-11 00:00:00,
2013-05-10 20:05:00,42.4,39.4,30.39,West,270,0.0,0.0,89,0.00,,,0.00,WUHU21623XXSP,2013-05-11 00:05:00,
2013-05-10 20:10:00,42.4,39.4,30.39,East,90,0.0,0.0,89,0.00,,,0.00,WUHU21623XXSP,2013-05-11 00:10:00,
2013-05-10 20:15:00,42.4,39.4,30.39,South,180,0.0,0.0,89,0.00,,,0.00,WUHU21623XXSP,2013-05-11 00:15:00,
2013-05-10 20:20:00,42.4,39.4,30.40,WSW,247,0.0,0.0,89,0.00,,,0.00,WUHU21623XXSP,2013-05-11 00:20:00,
2013-05-10 20:25:00,42.4,39.4,30.40,WSW,247,0.0,0.0,89,0.00,,,0.00,WUHU21623XXSP,2013-05-11 00:25:00,
2013-05-10 20:30:00,42.4,39.4,30.40,West,270,0.0,0.0,89,0.00,,,0.00,WUHU21623XXSP,2013-05-11 00:30:00,
2013-05-10 20:35:00,42.1,39.1,30.40,WSW,247,0.0,0.0,89,0.00,,,0.00,WUHU21623XXSP,2013-05-11 00:35:00,
2013-05-10 20:40:00,42.1,39.1,30.40,SW,225,0.0,0.0,89,0.00,,,0.00,WUHU21623XXSP,2013-05-11 00:40:00,
2013-05-10 20:45:00,42.3,39.3,30.40,West,270,0.0,0.0,89,0.00,,,0.00,WUHU21623XXSP,2013-05-11 00:45:00,
2013-05-10 20:50:00,42.1,39.1,30.40,WSW,247,0.0,0.0,89,0.00,,,0.00,WUHU21623XXSP,2013-05-11 00:50:00,
2013-05-10 20:55:00,42.1,39.1,30.40,South,180,0.0,0.0,89,0.00,,,0.00,WUHU21623XXSP,2013-05-11 00:55:00,
2013-05-10 21:00:00,42.1,39.1,30.40,South,180,0.0,0.0,89,0.00,,,0.00,WUHU21623XXSP,2013-05-11 01:00:00,
2013-05-10 21:05:00,41.9,38.9,30.41,NW,315,0.0,0.0,89,0.00,,,0.00,WUHU21623XXSP,2013-05-11 01:05:00,
2013-05-10 21:10:00,41.9,38.9,30.41,WSW,247,0.0,0.0,89,0.00,,,0.00,WUHU21623XXSP,2013-05-11 01:10:00,
2013-05-10 21:15:00,41.9,38.9,30.41,WSW,247,0.0,0.0,89,0.00,,,0.00,WUHU21623XXSP,2013-05-11 01:15:00,
2013-05-10 21:20:00,41.9,38.9,30.41,West,270,0.0,0.0,89,0.00,,,0.00,WUHU21623XXSP,2013-05-11 01:20:00,
2013-05-10 21:25:00,41.7,38.7,30.42,South,180,0.0,0.0,89,0.00,,,0.00,WUHU21623XXSP,2013-05-11 01:25:00,
2013-05-10 21:30:00,41.7,38.7,30.43,WSW,247,0.0,0.0,89,0.00,,,0.00,WUHU21623XXSP,2013-05-11 01:30:00,
2013-05-10 21:35:00,41.5,38.5,30.42,WSW,247,0.0,0.0,89,0.00,,,0.00,WUHU21623XXSP,2013-05-11 01:35:00,
2013-05-10 21:40:00,41.5,38.5,30.43,WSW,247,0.0,0.0,89,0.00,,,0.00,WUHU21623XXSP,2013-05-11 01:40:00,
2013-05-10 21:45:00,41.5,38.8,30.43,North,0,0.0,0.0,90,0.00,,,0.00,WUHU21623XXSP,2013-05-11 01:45:00,
2013-05-10 21:50:00,41.5,38.8,30.42,WSW,247,0.0,0.0,90,0.00,,,0.00,WUHU21623XXSP,2013-05-11 01:50:00,
2013-05-10 21:55:00,41.5,38.8,30.42,West,270,0.0,1.6,90,0.00,,,0.00,WUHU21623XXSP,2013-05-11 01:55:00,
2013-05-10 22:00:00,41.4,38.7,30.43,WSW,247,0.0,1.6,90,0.00,,,0.00,WUHU21623XXSP,2013-05-11 02:00:00,
2013-05-10 22:05:00,41.2,38.5,30.42,WSW,247,0.0,0.0,90,0.00,,,0.00,WUHU21623XXSP,2013-05-11 02:05:00,
2013-05-10 22:10:00,41.2,38.5,30.43,West,270,0.0,0.0,90,0.00,,,0.00,WUHU21623XXSP,2013-05-11 02:10:00,
2013-05-10 22:15:00,41.2,38.5,30.42,West,270,0.0,0.0,90,0.00,,,0.00,WUHU21623XXSP,2013-05-11 02:15:00,
2013-05-10 22:20:00,41.2,38.5,30.42,SW,225,0.0,0.0,90,0.00,,,0.00,WUHU21623XXSP,2013-05-11 02:20:00,
2013-05-10 22:25:00,41.2,38.5,30.43,SW,225,0.0,0.0,90,0.00,,,0.00,WUHU21623XXSP,2013-05-11 02:25:00,
2013-05-10 22:30:00,41.2,38.5,30.42,WSW,247,0.0,0.0,90,0.00,,,0.00,WUHU21623XXSP,2013-05-11 02:30:00,
2013-05-10 22:36:00,41.2,38.5,30.42,SW,225,0.0,0.0,90,0.00,,,0.00,WUHU21623XXSP,2013-05-11 02:36:00,
2013-05-10 22:41:00,41.0,38.3,30.42,WSW,247,0.0,0.0,90,0.00,,,0.00,WUHU21623XXSP,2013-05-11 02:41:00,
2013-05-10 22:46:00,40.8,38.1,30.42,WSW,247,0.0,0.7,90,0.00,,,0.00,WUHU21623XXSP,2013-05-11 02:46:00,
2013-05-10 22:51:00,40.8,38.1,30.42,WSW,247,0.0,0.7,90,0.00,,,0.00,WUHU21623XXSP,2013-05-11 02:51:00,
2013-05-10 22:56:00,40.8,38.1,30.41,SW,225,0.0,0.0,90,0.00,,,0.00,WUHU21623XXSP,2013-05-11 02:56:00,
2013-05-10 23:01:00,40.8,38.1,30.42,SW,225,0.0,0.0,90,0.00,,,0.00,WUHU21623XXSP,2013-05-11 03:01:00,
2013-05-10 23:06:00,40.8,38.1,30.41,SW,225,0.0,0.0,90,0.00,,,0.00,WUHU21623XXSP,2013-05-11 03:06:00,
2013-05-10 23:11:00,40.8,38.1,30.42,SW,225,0.0,0.0,90,0.00,,,0.00,WUHU21623XXSP,2013-05-11 03:11:00,
2013-05-10 23:16:00,40.8,38.1,30.42,SW,225,0.0,0.0,90,0.00,,,0.00,WUHU21623XXSP,2013-05-11 03:16:00,
2013-05-10 23:21:00,40.8,38.1,30.41,SW,225,0.0,0.0,90,0.00,,,0.00,WUHU21623XXSP,2013-05-11 03:21:00,
2013-05-10 23:26:00,40.8,38.1,30.42,SW,225,0.0,0.0,90,0.00,,,0.00,WUHU21623XXSP,2013-05-11 03:26:00,
2013-05-10 23:31:00,40.8,38.1,30.41,WSW,247,0.0,0.0,90,0.00,,,0.00,WUHU21623XXSP,2013-05-11 03:31:00,
2013-05-10 23:36:00,40.8,38.1,30.41,WSW,247,0.0,0.0,90,0.00,,,0.00,WUHU21623XXSP,2013-05-11 03:36:00,
2013-05-10 23:41:00,40.8,38.1,30.41,WSW,247,0.0,0.0,90,0.00,,,0.00,WUHU21623XXSP,2013-05-11 03:41:00,
2013-05-10 23:46:00,40.8,38.1,30.41,WSW,247,0.0,0.0,90,0.00,,,0.00,WUHU21623XXSP,2013-05-11 03:46:00,
2013-05-10 23:51:00,40.8,38.1,30.41,WSW,247,0.0,0.0,90,0.00,,,0.00,WUHU21623XXSP,2013-05-11 03:51:00,
2013-05-10 23:56:00,40.8,38.1,30.41,SW,225,0.0,0.0,90,0.00,,,0.00,WUHU21623XXSP,2013-05-11 03:56:00,